NCAR-RAP Real-Time Weather Data

Output produced by METARs form (17 December 2018  07:46 UTC)
found at http://weather.rap.ucar.edu/surface/
 
Conditions at: KPIE observed 17 December 2018  07:05 UTC
Temperature: 14.4°C (58°F)
Dewpoint: 12.2°C (54°F) [RH = 87%]
Pressure (altimeter): 30.13 inches Hg (1020.4 mb)
Winds: from the N (10 degrees) at 10 MPH (9 knots; 4.7 m/s)
Visibility: 10 or more miles (16+ km)
Ceiling: 3000 feet AGL
Clouds: overcast cloud deck at 3000 feet AGL
Present Weather:
SOME DATA ABOVE MAY BE INACCURATE!!!
"$" is an indication the sensor requires maintenance
KPIE 170705Z AUTO 01009KT 10SM OVC030 14/12 A3013 RMK AO2 T01440122 $

Conditions at: KPIE observed 17 December 2018  06:53 UTC
Temperature: 15.0°C (59°F)
Dewpoint: 11.1°C (52°F) [RH = 77%]
Pressure (altimeter): 30.13 inches Hg (1020.4 mb)
[Sea-level pressure: 1020.2 mb]
Winds: from the N (350 degrees) at 5 MPH (4 knots; 2.1 m/s)
Visibility: 10 or more miles (16+ km)
Ceiling: 2900 feet AGL
Clouds: overcast cloud deck at 2900 feet AGL
Present Weather:
SOME DATA ABOVE MAY BE INACCURATE!!!
"$" is an indication the sensor requires maintenance
KPIE 170653Z AUTO 35004KT 10SM OVC029 15/11 A3013 RMK AO2 SLP202 T01500111 $

Conditions at: KPIE observed 17 December 2018  05:53 UTC
Temperature: 14.4°C (58°F)
Dewpoint: 11.7°C (53°F) [RH = 84%]
Pressure (altimeter): 30.14 inches Hg (1020.7 mb)
[Sea-level pressure: 1020.5 mb]
Winds: from the NW (320 degrees) at 7 MPH (6 knots; 3.1 m/s)
Visibility: 10 or more miles (16+ km)
Ceiling: 2900 feet AGL
Clouds: overcast cloud deck at 2900 feet AGL
Present Weather:
SOME DATA ABOVE MAY BE INACCURATE!!!
"$" is an indication the sensor requires maintenance
KPIE 170553Z AUTO 32006KT 10SM OVC029 14/12 A3014 RMK AO2 SLP205 T01440117 10161 20139 58008 $

Conditions at: KPIE observed 17 December 2018  05:28 UTC
Temperature: 14.4°C (58°F)
Dewpoint: 10.6°C (51°F) [RH = 78%]
Pressure (altimeter): 30.14 inches Hg (1020.7 mb)
Winds: from the WNW (300 degrees) at 5 MPH (4 knots; 2.1 m/s)
Visibility: 10 or more miles (16+ km)
Ceiling: 2900 feet AGL
Clouds: broken clouds at 2900 feet AGL
Present Weather:
SOME DATA ABOVE MAY BE INACCURATE!!!
"$" is an indication the sensor requires maintenance
KPIE 170528Z AUTO 30004KT 10SM BKN029 14/11 A3014 RMK AO2 T01440106 $

Conditions at: KPIE observed 17 December 2018  04:53 UTC
Temperature: 14.4°C (58°F)
Dewpoint: 11.1°C (52°F) [RH = 81%]
Pressure (altimeter): 30.15 inches Hg (1021.1 mb)
[Sea-level pressure: 1021.0 mb]
Winds: from the NW (310 degrees) at 8 MPH (7 knots; 3.6 m/s)
Visibility: 10 or more miles (16+ km)
Ceiling: at least 12,000 feet AGL
Clouds: scattered clouds at 3200 feet AGL
Present Weather:
SOME DATA ABOVE MAY BE INACCURATE!!!
"$" is an indication the sensor requires maintenance
KPIE 170453Z AUTO 31007KT 10SM SCT032 14/11 A3015 RMK AO2 SLP210 T01440111 402060128 $

Conditions at: KPIE observed 17 December 2018  03:53 UTC
Temperature: 16.1°C (61°F)
Dewpoint: 12.2°C (54°F) [RH = 78%]
Pressure (altimeter): 30.17 inches Hg (1021.8 mb)
[Sea-level pressure: 1021.5 mb]
Winds: from the NW (320 degrees) at 13 MPH (11 knots; 5.7 m/s)
Visibility: 10 or more miles (16+ km)
Ceiling: 3100 feet AGL
Clouds: overcast cloud deck at 3100 feet AGL
Present Weather:
SOME DATA ABOVE MAY BE INACCURATE!!!
"$" is an indication the sensor requires maintenance
KPIE 170353Z 32011KT 10SM OVC031 16/12 A3017 RMK AO2 SLP215 T01610122 $

Conditions at: KPIE observed 17 December 2018  02:53 UTC
Temperature: 16.1°C (61°F)
Dewpoint: 12.2°C (54°F) [RH = 78%]
Pressure (altimeter): 30.16 inches Hg (1021.4 mb)
[Sea-level pressure: 1021.2 mb]
Winds: from the NNW (330 degrees) at 7 MPH (6 knots; 3.1 m/s)
Visibility: 10 or more miles (16+ km)
Ceiling: 2700 feet AGL
Clouds: overcast cloud deck at 2700 feet AGL
Present Weather:
SOME DATA ABOVE MAY BE INACCURATE!!!
"$" is an indication the sensor requires maintenance
KPIE 170253Z 33006KT 10SM OVC027 16/12 A3016 RMK AO2 SLP212 T01610122 51008 $

Conditions at: KPIE observed 17 December 2018  02:11 UTC
Temperature: 16.1°C (61°F)
Dewpoint: 12.2°C (54°F) [RH = 78%]
Pressure (altimeter): 30.16 inches Hg (1021.4 mb)
Winds: from the NW (310 degrees) at 7 MPH (6 knots; 3.1 m/s)
Visibility: 10 or more miles (16+ km)
Ceiling: 2900 feet AGL
Clouds: overcast cloud deck at 2900 feet AGL
Present Weather:
SOME DATA ABOVE MAY BE INACCURATE!!!
"$" is an indication the sensor requires maintenance
KPIE 170211Z 31006KT 10SM OVC029 16/12 A3016 RMK AO2 T01610122 $

Conditions at: KPIE observed 17 December 2018  01:53 UTC
Temperature: 16.1°C (61°F)
Dewpoint: 12.2°C (54°F) [RH = 78%]
Pressure (altimeter): 30.16 inches Hg (1021.4 mb)
[Sea-level pressure: 1021.1 mb]
Winds: from the NNW (330 degrees) at 10 MPH (9 knots; 4.7 m/s)
Visibility: 10 or more miles (16+ km)
Ceiling: 3100 feet AGL
Clouds: few clouds at 2500 feet AGL
overcast cloud deck at 3100 feet AGL
Present Weather:
SOME DATA ABOVE MAY BE INACCURATE!!!
"$" is an indication the sensor requires maintenance
KPIE 170153Z 33009KT 10SM FEW025 OVC031 16/12 A3016 RMK AO2 SLP211 T01610122 $

Conditions at: KPIE observed 17 December 2018  01:46 UTC
Temperature: 15.6°C (60°F)
Dewpoint: 12.8°C (55°F) [RH = 83%]
Pressure (altimeter): 30.16 inches Hg (1021.4 mb)
Winds: from the NNW (330 degrees) at 3 MPH (3 knots; 1.6 m/s)
Visibility: 10 or more miles (16+ km)
Ceiling: 3200 feet AGL
Clouds: scattered clouds at 2500 feet AGL
overcast cloud deck at 3200 feet AGL
Present Weather:
SOME DATA ABOVE MAY BE INACCURATE!!!
"$" is an indication the sensor requires maintenance
KPIE 170146Z 33003KT 10SM SCT025 OVC032 16/13 A3016 RMK AO2 T01560128 $

Conditions at: KPIE observed 17 December 2018  00:53 UTC
Temperature: 15.6°C (60°F)
Dewpoint: 12.8°C (55°F) [RH = 83%]
Pressure (altimeter): 30.15 inches Hg (1021.1 mb)
[Sea-level pressure: 1021.0 mb]
Winds: from the NNW (330 degrees) at 8 MPH (7 knots; 3.6 m/s)
Visibility: 10 or more miles (16+ km)
Ceiling: 2800 feet AGL
Clouds: overcast cloud deck at 2800 feet AGL
Present Weather:
SOME DATA ABOVE MAY BE INACCURATE!!!
"$" is an indication the sensor requires maintenance
KPIE 170053Z 33007KT 10SM OVC028 16/13 A3015 RMK AO2 SLP210 T01560128 $

Conditions at: KPIE observed 16 December 2018  23:53 UTC
Temperature: 15.0°C (59°F)
Dewpoint: 12.2°C (54°F) [RH = 83%]
Pressure (altimeter): 30.14 inches Hg (1020.7 mb)
[Sea-level pressure: 1020.4 mb]
Winds: from the N (360 degrees) at 5 MPH (4 knots; 2.1 m/s)
Visibility: 10 or more miles (16+ km)
Ceiling: 3800 feet AGL
Clouds: scattered clouds at 3000 feet AGL
broken clouds at 3800 feet AGL
Present Weather:
SOME DATA ABOVE MAY BE INACCURATE!!!
"$" is an indication the sensor requires maintenance
KPIE 162353Z 36004KT 10SM SCT030 BKN038 15/12 A3014 RMK AO2 SLP204 T01500122 10206 20150 51012 $

Conditions at: KPIE observed 16 December 2018  23:41 UTC
Temperature: 15.6°C (60°F)
Dewpoint: 12.2°C (54°F) [RH = 80%]
Pressure (altimeter): 30.13 inches Hg (1020.4 mb)
Winds: from the N (360 degrees) at 7 MPH (6 knots; 3.1 m/s)
Visibility: 10 or more miles (16+ km)
Ceiling: 3800 feet AGL
Clouds: few clouds at 200 feet AGL
scattered clouds at 3000 feet AGL
broken clouds at 3800 feet AGL
Present Weather:
SOME DATA ABOVE MAY BE INACCURATE!!!
"$" is an indication the sensor requires maintenance
KPIE 162341Z 36006KT 10SM FEW002 SCT030 BKN038 16/12 A3013 RMK AO2 T01560122 $

Conditions at: KPIE observed 16 December 2018  22:53 UTC
Temperature: 16.1°C (61°F)
Dewpoint: 12.2°C (54°F) [RH = 78%]
Pressure (altimeter): 30.13 inches Hg (1020.4 mb)
[Sea-level pressure: 1020.2 mb]
Winds: from the NNW (330 degrees) at 12 MPH (10 knots; 5.2 m/s)
Visibility: 10 or more miles (16+ km)
Ceiling: 3700 feet AGL
Clouds: overcast cloud deck at 3700 feet AGL
Present Weather: automated observation with no human augmentation;
there may or may not be significant weather present at this time
KPIE 162253Z AUTO 33010KT 10SM OVC037 16/12 A3013 RMK AO2 SLP202 T01610122

Conditions at: KPIE observed 16 December 2018  21:53 UTC
Temperature: 17.2°C (63°F)
Dewpoint: 12.8°C (55°F) [RH = 75%]
Pressure (altimeter): 30.12 inches Hg (1020.1 mb)
[Sea-level pressure: 1019.9 mb]
Winds: from the NW (320 degrees) at 13 MPH (11 knots; 5.7 m/s)
Visibility: 10 or more miles (16+ km)
Ceiling: at least 12,000 feet AGL
Clouds: sky clear below 12,000 feet AGL
Present Weather: automated observation with no human augmentation;
there may or may not be significant weather present at this time
KPIE 162153Z AUTO 32011KT 10SM CLR 17/13 A3012 RMK AO2 SLP199 T01720128

Conditions at: KPIE observed 16 December 2018  20:53 UTC
Temperature: 18.9°C (66°F)
Dewpoint: 13.3°C (56°F) [RH = 70%]
Pressure (altimeter): 30.10 inches Hg (1019.4 mb)
[Sea-level pressure: 1019.3 mb]
Winds: from the NW (310 degrees) at 12 MPH (10 knots; 5.2 m/s)
Visibility: 10 or more miles (16+ km)
Ceiling: at least 12,000 feet AGL
Clouds: sky clear below 12,000 feet AGL
Present Weather: no significant weather observed at this time
KPIE 162053Z 31010KT 10SM CLR 19/13 A3010 RMK AO2 SLP193 T01890133 55003

Conditions at: KPIE observed 16 December 2018  19:53 UTC
Temperature: 20.6°C (69°F)
Dewpoint: 13.9°C (57°F) [RH = 65%]
Pressure (altimeter): 30.08 inches Hg (1018.7 mb)
[Sea-level pressure: 1018.5 mb]
Winds: from the NNW (330 degrees) at 9 MPH (8 knots; 4.2 m/s)
Visibility: 10 or more miles (16+ km)
Ceiling: at least 12,000 feet AGL
Clouds: sky clear below 12,000 feet AGL
Present Weather: no significant weather observed at this time
KPIE 161953Z 33008KT 10SM CLR 21/14 A3008 RMK AO2 SLP185 T02060139

Conditions at: KPIE observed 16 December 2018  18:53 UTC
Temperature: 20.0°C (68°F)
Dewpoint: 14.4°C (58°F) [RH = 70%]
Pressure (altimeter): 30.08 inches Hg (1018.7 mb)
[Sea-level pressure: 1018.7 mb]
Winds: from the NNW (330 degrees) at 12 MPH (10 knots; 5.2 m/s)
Visibility: 10 or more miles (16+ km)
Ceiling: 3500 feet AGL
Clouds: scattered clouds at 2600 feet AGL
broken clouds at 3500 feet AGL
Present Weather: no significant weather observed at this time
KPIE 161853Z 33010KT 10SM SCT026 BKN035 20/14 A3008 RMK AO2 SLP187 T02000144

Conditions at: KPIE observed 16 December 2018  18:00 UTC
Temperature: 18.3°C (65°F)
Dewpoint: 15.6°C (60°F) [RH = 84%]
Pressure (altimeter): 30.11 inches Hg (1019.7 mb)
Winds: from the NNE (30 degrees) at 3 MPH (3 knots; 1.6 m/s)
Visibility: 10 or more miles (16+ km)
Ceiling: 2400 feet AGL
Clouds: broken clouds at 2400 feet AGL
Present Weather: no significant weather observed at this time
KPIE 161800Z COR 03003KT 10SM BKN024 18/16 A3011 RMK AO2 T01830156

Conditions at: KPIE observed 16 December 2018  17:53 UTC
Temperature: 18.3°C (65°F)
Dewpoint: 16.1°C (61°F) [RH = 87%]
Pressure (altimeter): 30.11 inches Hg (1019.7 mb)
[Sea-level pressure: 1019.6 mb]
Winds: calm
Visibility: 10 or more miles (16+ km)
Ceiling: 1200 feet AGL
Clouds: broken clouds at 1200 feet AGL
Present Weather: no significant weather observed at this time
KPIE 161753Z 00000KT 10SM BKN012 18/16 A3011 RMK AO2 SLP196 60001 T01830161 10194 20144 58018

Conditions at: KPIE observed 16 December 2018  16:57 UTC
Temperature: 18.9°C (66°F)
Dewpoint: 16.1°C (61°F) [RH = 84%]
Pressure (altimeter): 30.13 inches Hg (1020.4 mb)
Winds: from the NNE (30 degrees) at 7 MPH (6 knots; 3.1 m/s)
Visibility: 10 or more miles (16+ km)
Ceiling: at least 12,000 feet AGL
Clouds: scattered clouds at 1200 feet AGL
Present Weather: no significant weather observed at this time
KPIE 161657Z 03006KT 10SM SCT012 19/16 A3013 RMK AO2 T01890161

Conditions at: KPIE observed 16 December 2018  16:53 UTC
Temperature: 18.9°C (66°F)
Dewpoint: 16.1°C (61°F) [RH = 84%]
Pressure (altimeter): 30.14 inches Hg (1020.7 mb)
[Sea-level pressure: 1020.4 mb]
Winds: from the NNE (30 degrees) at 6 MPH (5 knots; 2.6 m/s)
Visibility: 10 or more miles (16+ km)
Ceiling: 1200 feet AGL
Clouds: scattered clouds at 400 feet AGL
broken clouds at 1200 feet AGL
broken clouds at 3700 feet AGL
Present Weather: no significant weather observed at this time
KPIE 161653Z 03005KT 10SM SCT004 BKN012 BKN037 19/16 A3014 RMK AO2 SLP204 T01890161

Conditions at: KPIE observed 16 December 2018  15:53 UTC
Temperature: 17.8°C (64°F)
Dewpoint: 16.7°C (62°F) [RH = 93%]
Pressure (altimeter): 30.16 inches Hg (1021.4 mb)
[Sea-level pressure: 1021.3 mb]
Winds: from the NNE (20 degrees) at 7 MPH (6 knots; 3.1 m/s)
Visibility: 10 or more miles (16+ km)
Ceiling: 1200 feet AGL
Clouds: scattered clouds at 400 feet AGL
broken clouds at 1200 feet AGL
broken clouds at 3700 feet AGL
Present Weather: no significant weather observed at this time
KPIE 161553Z 02006KT 10SM SCT004 BKN012 BKN037 18/17 A3016 RMK AO2 SLP213 T01780167

Conditions at: KPIE observed 16 December 2018  15:50 UTC
Temperature: 18.0°C (64°F)
Dewpoint: 17.0°C (63°F) [RH = 94%]
Pressure (altimeter): 30.16 inches Hg (1021.4 mb)
Winds: from the NNE (20 degrees) at 6 MPH (5 knots; 2.6 m/s)
Visibility: 10 or more miles (16+ km)
Ceiling: 1200 feet AGL
Clouds: scattered clouds at 400 feet AGL
broken clouds at 1200 feet AGL
broken clouds at 3700 feet AGL
Present Weather: no significant weather observed at this time
KPIE 161550Z 02005KT 10SM SCT004 BKN012 BKN037 18/17 A3016 RMK AO2

Conditions at: KPIE observed 16 December 2018  15:00 UTC
Temperature: 17.8°C (64°F)
Dewpoint: 17.2°C (63°F) [RH = 96%]
Pressure (altimeter): 30.17 inches Hg (1021.8 mb)
Winds: from the NE (40 degrees) at 5 MPH (4 knots; 2.1 m/s)
Visibility: 9 miles (14 km)
Ceiling: 1700 feet AGL
Clouds: scattered clouds at 400 feet AGL
broken clouds at 1700 feet AGL
broken clouds at 3700 feet AGL
Present Weather: no significant weather observed at this time
KPIE 161500Z 04004KT 9SM SCT004 BKN017 BKN037 18/17 A3017 RMK AO2 T01780172

Conditions at: KPIE observed 16 December 2018  14:53 UTC
Temperature: 17.8°C (64°F)
Dewpoint: 17.2°C (63°F) [RH = 96%]
Pressure (altimeter): 30.17 inches Hg (1021.8 mb)
[Sea-level pressure: 1021.5 mb]
Winds: from the NNE (20 degrees) at 3 MPH (3 knots; 1.6 m/s)
Visibility: 8 miles (13 km)
Ceiling: 4600 feet AGL
Clouds: scattered clouds at 400 feet AGL
broken clouds at 4600 feet AGL
overcast cloud deck at 6000 feet AGL
Present Weather: no significant weather observed at this time
KPIE 161453Z 02003KT 8SM SCT004 BKN046 OVC060 18/17 A3017 RMK AO2 SLP215 60001 T01780172 52018

Conditions at: KPIE observed 16 December 2018  14:13 UTC
Temperature: 17.2°C (63°F)
Dewpoint: 17.2°C (63°F) [RH = 100%]
Pressure (altimeter): 30.16 inches Hg (1021.4 mb)
Winds: from the N (10 degrees) at 6 MPH (5 knots; 2.6 m/s)
Visibility: 6 miles (10 km)
Ceiling: 400 feet AGL
Clouds: broken clouds at 400 feet AGL
broken clouds at 4600 feet AGL
overcast cloud deck at 6000 feet AGL
Present Weather: BR  (mist)
KPIE 161413Z 01005KT 6SM BR BKN004 BKN046 OVC060 17/17 A3016 RMK AO2 T01720172

Conditions at: KPIE observed 16 December 2018  13:53 UTC
Temperature: 17.2°C (63°F)
Dewpoint: 16.7°C (62°F) [RH = 97%]
Pressure (altimeter): 30.15 inches Hg (1021.1 mb)
[Sea-level pressure: 1020.9 mb]
Winds: from the NE (40 degrees) at 3 MPH (3 knots; 1.6 m/s)
Visibility: 6 miles (10 km)
Ceiling: 6000 feet AGL
Clouds: few clouds at 2400 feet AGL
scattered clouds at 3700 feet AGL
overcast cloud deck at 6000 feet AGL
Present Weather: BR  (mist)
KPIE 161353Z 04003KT 6SM BR FEW024 SCT037 OVC060 17/17 A3015 RMK AO2 SLP209 T01720167

Conditions at: KPIE observed 16 December 2018  12:53 UTC
Temperature: 16.1°C (61°F)
Dewpoint: 16.1°C (61°F) [RH = 100%]
Pressure (altimeter): 30.13 inches Hg (1020.4 mb)
[Sea-level pressure: 1020.2 mb]
Winds: from the NE (50 degrees) at 3 MPH (3 knots; 1.6 m/s)
Visibility: 7 miles (11 km)
Ceiling: 6500 feet AGL
Clouds: overcast cloud deck at 6500 feet AGL
Present Weather: no significant weather observed at this time
KPIE 161253Z 05003KT 7SM OVC065 16/16 A3013 RMK AO2 RAB1155E05 SLP202 P0001 T01610161

Conditions at: KPIE observed 16 December 2018  11:53 UTC
Temperature: 15.6°C (60°F)
Dewpoint: 15.6°C (60°F) [RH = 100%]
Pressure (altimeter): 30.11 inches Hg (1019.7 mb)
[Sea-level pressure: 1019.7 mb]
Winds: calm
Visibility: 7 miles (11 km)
Ceiling: at least 12,000 feet AGL
Clouds: scattered clouds at 6500 feet AGL
Present Weather: no significant weather observed at this time
KPIE 161153Z 00000KT 7SM SCT065 16/16 A3011 RMK AO2 RAB13E22 SLP197 P0000 60000 70014 T01560156 10161 20128 53010

Conditions at: KPIE observed 16 December 2018  10:53 UTC
Temperature: 15.6°C (60°F)
Dewpoint: 15.6°C (60°F) [RH = 100%]
Pressure (altimeter): 30.10 inches Hg (1019.4 mb)
[Sea-level pressure: 1019.2 mb]
Winds: calm
Visibility: 9 miles (14 km)
Ceiling: 6000 feet AGL
Clouds: few clouds at 5000 feet AGL
overcast cloud deck at 6000 feet AGL
Present Weather: no significant weather observed at this time
KPIE 161053Z 00000KT 9SM FEW050 OVC060 16/16 A3010 RMK AO2 RAB18E53 SLP192 P0000 T01560156

Conditions at: KPIE observed 16 December 2018  10:07 UTC
Temperature: 14.4°C (58°F)
Dewpoint: 14.4°C (58°F) [RH = 100%]
Pressure (altimeter): 30.09 inches Hg (1019.0 mb)
Winds: from the S (190 degrees) at 3 MPH (3 knots; 1.6 m/s)
Visibility: 3 miles (5 km)
Ceiling: 6500 feet AGL
Clouds: broken clouds at 6500 feet AGL
Present Weather: BR  (mist)
KPIE 161007Z AUTO 19003KT 3SM BR BKN065 14/14 A3009 RMK AO2 T01440144

Conditions at: KPIE observed 16 December 2018  09:53 UTC
Temperature: 13.9°C (57°F)
Dewpoint: 13.9°C (57°F) [RH = 100%]
Pressure (altimeter): 30.09 inches Hg (1019.0 mb)
[Sea-level pressure: 1018.7 mb]
Winds: from the SSE (150 degrees) at 3 MPH (3 knots; 1.6 m/s)
Visibility: 2.00 miles (3.22 km)
Ceiling: 6500 feet AGL
Clouds: broken clouds at 6500 feet AGL
Present Weather: BR  (mist)
KPIE 160953Z AUTO 15003KT 2SM BR BKN065 14/14 A3009 RMK AO2 SLP187 T01390139

Conditions at: KPIE observed 16 December 2018  09:39 UTC
Temperature: 14.4°C (58°F)
Dewpoint: 14.4°C (58°F) [RH = 100%]
Pressure (altimeter): 30.09 inches Hg (1019.0 mb)
Winds: from the S (170 degrees) at 3 MPH (3 knots; 1.6 m/s)
Visibility: 1.50 miles (2.41 km)
Ceiling: at least 12,000 feet AGL
Clouds: few clouds at 6500 feet AGL
Present Weather: BR  (mist)
KPIE 160939Z AUTO 17003KT 1 1/2SM BR FEW065 14/14 A3009 RMK AO2 T01440144

Conditions at: KPIE observed 16 December 2018  08:53 UTC
Temperature: 13.9°C (57°F)
Dewpoint: 13.9°C (57°F) [RH = 100%]
Pressure (altimeter): 30.08 inches Hg (1018.7 mb)
[Sea-level pressure: 1018.6 mb]
Winds: calm
Visibility: 5 miles (8 km)
Ceiling: 6500 feet AGL
Clouds: overcast cloud deck at 6500 feet AGL
Present Weather: BR  (mist)
KPIE 160853Z AUTO 00000KT 5SM BR OVC065 14/14 A3008 RMK AO2 RAB42E52 SLP186 P0000 60000 T01390139 53001

Conditions at: KPIE observed 16 December 2018  08:50 UTC
Temperature: 14.0°C (57°F)
Dewpoint: 14.0°C (57°F) [RH = 100%]
Pressure (altimeter): 30.08 inches Hg (1018.7 mb)
Winds: calm
Visibility: 5 miles (8 km)
Ceiling: 6500 feet AGL
Clouds: overcast cloud deck at 6500 feet AGL
Present Weather: -RA BR  (light rain, mist)
KPIE 160850Z AUTO 00000KT 5SM -RA BR OVC065 14/14 A3008 RMK AO2 RAB42 P0000

Conditions at: KPIE observed 16 December 2018  08:33 UTC
Temperature: 13.9°C (57°F)
Dewpoint: 13.9°C (57°F) [RH = 100%]
Pressure (altimeter): 30.08 inches Hg (1018.7 mb)
Winds: calm
Visibility: 2.00 miles (3.22 km)
Ceiling: 6500 feet AGL
Clouds: few clouds at 900 feet AGL
broken clouds at 6500 feet AGL
Present Weather: BR  (mist)
KPIE 160833Z AUTO 00000KT 2SM BR FEW009 BKN065 14/14 A3008 RMK AO2 T01390139

Conditions at: KPIE observed 16 December 2018  08:06 UTC
Temperature: 13.3°C (56°F)
Dewpoint: 13.3°C (56°F) [RH = 100%]
Pressure (altimeter): 30.07 inches Hg (1018.4 mb)
Winds: calm
Visibility: 0.75 miles (1.21 km)
Ceiling: 6000 feet AGL
Clouds: scattered clouds at 900 feet AGL
broken clouds at 6000 feet AGL
Present Weather: BR  (mist)
KPIE 160806Z AUTO 00000KT 3/4SM BR SCT009 BKN060 13/13 A3007 RMK AO2 T01330133 RVRNO

Conditions at: KPIE observed 16 December 2018  07:53 UTC
Temperature: 13.3°C (56°F)
Dewpoint: 13.3°C (56°F) [RH = 100%]
Pressure (altimeter): 30.08 inches Hg (1018.7 mb)
[Sea-level pressure: 1018.4 mb]
Winds: calm
Visibility: 0.50 miles (0.80 km)
Ceiling: indefinite ceiling with vertical visibility of 900 feet AGL
Clouds: obscured sky
Present Weather: FG  (fog)
KPIE 160753Z AUTO 00000KT 1/2SM FG VV009 13/13 A3008 RMK AO2 RAB03E12 SLP184 P0000 T01330133 RVRNO

Conditions at: KPIE observed 16 December 2018  07:51 UTC
Temperature: 14.0°C (57°F)
Dewpoint: 14.0°C (57°F) [RH = 100%]
Pressure (altimeter): 30.08 inches Hg (1018.7 mb)
Winds: calm
Visibility: 0.50 miles (0.80 km)
Ceiling: indefinite ceiling with vertical visibility of 900 feet AGL
Clouds: obscured sky
Present Weather: FG  (fog)
KPIE 160751Z AUTO 00000KT 1/2SM FG VV009 14/14 A3008 RMK AO2 RAB03E12 P0000 RVRNO

Conditions at: KPIE observed 16 December 2018  07:49 UTC
Temperature: 14.0°C (57°F)
Dewpoint: 14.0°C (57°F) [RH = 100%]
Pressure (altimeter): 30.07 inches Hg (1018.4 mb)
Winds: calm
Visibility: 1.00 miles (1.61 km)
Ceiling: indefinite ceiling with vertical visibility of 1000 feet AGL
Clouds: obscured sky
Present Weather: BR  (mist)
KPIE 160749Z AUTO 00000KT 1SM BR VV010 14/14 A3007 RMK AO2 RAB03E12 P0000 RVRNO